Time;durP1;ratioP1;P1;durP2;ratioP2;P2;SDS_P1;SDS_P2;PMS_P1;PMS_P2;Temp;Humidity;BMP_temperature;BMP_pressure;BME280_temperature;BME280_humidity;BME280_pressure;Samples;Min_cycle;Max_cycle;Signal;HPM_P1;HPM_P2
2022/03/11 05:02:44;;;;;;;12.00;7.73;;;2.90;70.60;;;;;;4954741;29;20473;-71
2022/03/11 05:05:12;;;;;;;11.43;7.73;;;2.90;70.90;;;;;;4956610;28;20449;-71
2022/03/11 05:07:39;;;;;;;10.67;6.77;;;2.90;70.90;;;;;;4956190;28;20479;-71
2022/03/11 05:10:08;;;;;;;10.70;7.00;;;2.80;70.20;;;;;;4956426;28;20460;-71
2022/03/11 05:12:35;;;;;;;13.43;7.43;;;2.80;70.20;;;;;;4956538;28;20477;-71
2022/03/11 05:15:03;;;;;;;10.30;7.40;;;2.80;70.20;;;;;;4957170;28;20866;-71
2022/03/11 05:17:30;;;;;;;11.77;7.60;;;2.80;70.30;;;;;;4956334;28;20461;-71
2022/03/11 05:19:58;;;;;;;13.73;6.70;;;2.70;70.10;;;;;;4955757;28;20461;-71
2022/03/11 05:22:25;;;;;;;9.93;6.57;;;2.70;70.20;;;;;;4955877;28;20505;-71
2022/03/11 05:24:52;;;;;;;10.90;7.00;;;2.70;70.10;;;;;;4956049;28;20458;-71
2022/03/11 05:27:19;;;;;;;12.30;7.43;;;2.60;70.10;;;;;;4956115;28;20793;-71
2022/03/11 05:29:46;;;;;;;11.30;7.03;;;2.60;69.90;;;;;;4956097;28;20461;-71
2022/03/11 05:32:14;;;;;;;12.43;7.17;;;2.60;70.00;;;;;;4955399;28;20560;-71
2022/03/11 05:34:42;;;;;;;13.17;7.10;;;2.50;70.00;;;;;;4955840;28;20461;-66
2022/03/11 05:37:11;;;;;;;13.70;6.87;;;2.50;70.20;;;;;;4955707;28;20824;-66
2022/03/11 05:39:38;;;;;;;8.97;6.30;;;2.50;71.00;;;;;;4955942;28;20462;-66
2022/03/11 05:42:07;;;;;;;14.93;7.00;;;2.50;70.30;;;;;;4955890;28;20532;-65
2022/03/11 05:44:34;;;;;;;13.50;6.13;;;2.50;70.20;;;;;;4955880;28;20462;-66
2022/03/11 05:47:01;;;;;;;10.13;6.80;;;2.50;70.00;;;;;;4955384;28;20461;-71
2022/03/11 05:49:28;;;;;;;12.40;6.73;;;2.50;70.20;;;;;;4955581;28;20540;-72
2022/03/11 05:51:55;;;;;;;8.47;6.10;;;2.50;70.90;;;;;;4955449;28;20476;-71
2022/03/11 05:54:24;;;;;;;12.87;7.30;;;2.50;70.90;;;;;;4955435;28;20498;-72
2022/03/11 05:56:54;;;;;;;11.47;6.70;;;2.50;70.50;;;;;;4956343;28;20941;-72
2022/03/11 05:59:21;;;;;;;10.47;6.83;;;2.50;70.20;;;;;;4955779;28;20441;-73
2022/03/11 06:01:48;;;;;;;16.63;7.10;;;2.50;70.10;;;;;;4955202;28;20504;-71
2022/03/11 06:04:15;;;;;;;8.77;6.17;;;2.40;70.20;;;;;;4955079;28;20576;-72
2022/03/11 06:06:42;;;;;;;11.13;6.50;;;2.40;70.00;;;;;;4955251;28;20449;-72
2022/03/11 06:09:11;;;;;;;11.30;7.17;;;2.40;70.30;;;;;;4955577;28;20516;-73
2022/03/11 06:11:39;;;;;;;12.60;7.47;;;2.40;70.50;;;;;;4955395;28;20477;-72
2022/03/11 06:14:06;;;;;;;13.47;6.37;;;2.40;69.90;;;;;;4955405;28;20465;-72
2022/03/11 06:16:34;;;;;;;13.07;6.87;;;2.40;69.90;;;;;;4954964;28;20970;-72
2022/03/11 06:19:02;;;;;;;11.90;8.17;;;2.40;70.10;;;;;;4955353;28;20544;-72
2022/03/11 06:21:29;;;;;;;13.43;7.20;;;2.50;70.20;;;;;;4954978;28;20556;-72
2022/03/11 06:23:57;;;;;;;12.63;7.33;;;2.40;70.00;;;;;;4954976;28;20457;-72
2022/03/11 06:26:24;;;;;;;11.90;6.90;;;2.40;69.80;;;;;;4954580;28;20457;-73
2022/03/11 06:28:53;;;;;;;10.93;6.20;;;2.40;69.80;;;;;;4955363;28;20472;-72
2022/03/11 06:31:20;;;;;;;9.90;6.70;;;2.40;69.80;;;;;;4954554;28;20528;-73
2022/03/11 06:33:47;;;;;;;11.10;6.80;;;2.30;70.00;;;;;;4954692;28;20945;-73
2022/03/11 06:36:14;;;;;;;10.40;7.03;;;2.40;70.00;;;;;;4955022;28;20492;-74
2022/03/11 06:38:41;;;;;;;9.57;6.00;;;2.30;70.00;;;;;;4954770;28;20461;-72
2022/03/11 06:41:08;;;;;;;7.90;5.70;;;2.30;70.10;;;;;;4954570;28;20501;-72
2022/03/11 06:43:35;;;;;;;8.40;6.07;;;2.30;70.00;;;;;;4954633;28;20463;-72
2022/03/11 06:46:03;;;;;;;13.37;7.20;;;2.40;70.30;;;;;;4954902;28;20516;-72
2022/03/11 06:48:30;;;;;;;10.13;5.87;;;2.30;70.50;;;;;;4954085;28;20523;-72
2022/03/11 06:50:57;;;;;;;11.60;6.27;;;2.40;70.50;;;;;;4954291;28;20568;-72
2022/03/11 06:53:26;;;;;;;11.60;7.00;;;2.40;70.30;;;;;;4954453;28;20450;-72
2022/03/11 06:55:53;;;;;;;10.73;7.00;;;2.40;70.50;;;;;;4954457;28;20824;-72
2022/03/11 06:58:20;;;;;;;10.33;6.70;;;2.50;70.50;;;;;;4953719;28;20806;-72
2022/03/11 07:00:47;;;;;;;8.40;5.77;;;2.50;70.80;;;;;;4954290;28;20493;-72
2022/03/11 07:03:15;;;;;;;9.60;6.17;;;2.50;70.60;;;;;;4954457;28;20457;-71
2022/03/11 07:05:42;;;;;;;10.93;6.30;;;2.50;70.60;;;;;;4954436;28;20468;-71
2022/03/11 07:08:10;;;;;;;10.10;6.23;;;2.50;70.80;;;;;;4954065;28;20449;-71
2022/03/11 07:10:37;;;;;;;13.47;6.50;;;2.60;70.60;;;;;;4954402;28;20525;-73
2022/03/11 07:13:04;;;;;;;12.57;7.73;;;2.60;70.60;;;;;;4954418;28;20926;-72
2022/03/11 07:15:31;;;;;;;11.70;6.87;;;2.70;70.70;;;;;;4954205;28;20467;-71
2022/03/11 07:17:57;;;;;;;15.00;7.20;;;2.70;70.40;;;;;;4954074;28;20461;-64
2022/03/11 07:20:26;;;;;;;10.60;6.83;;;2.80;70.70;;;;;;4953930;28;20489;-64
2022/03/11 07:22:52;;;;;;;10.70;6.83;;;2.80;70.70;;;;;;4954219;28;20867;-72
2022/03/11 07:25:20;;;;;;;10.10;6.80;;;2.90;70.90;;;;;;4953842;28;20977;-71
2022/03/11 07:27:48;;;;;;;9.93;6.60;;;3.00;70.70;;;;;;4953406;28;20492;-71
2022/03/11 07:30:16;;;;;;;10.63;7.10;;;3.00;71.30;;;;;;4953733;28;20449;-71
2022/03/11 07:32:43;;;;;;;11.70;6.90;;;3.10;70.80;;;;;;4953688;28;20457;-72
2022/03/11 07:35:12;;;;;;;11.10;6.93;;;3.20;70.70;;;;;;4953970;28;20464;-72
2022/03/11 07:37:40;;;;;;;11.77;6.70;;;3.30;71.20;;;;;;4953495;28;20461;-71
2022/03/11 07:40:08;;;;;;;18.00;7.73;;;3.30;70.30;;;;;;4954139;28;20869;-72
2022/03/11 07:42:35;;;;;;;15.20;7.43;;;3.40;70.40;;;;;;4953719;28;20580;-72
2022/03/11 07:45:02;;;;;;;10.83;6.77;;;3.60;70.20;;;;;;4954267;28;20524;-72
2022/03/11 07:47:29;;;;;;;8.57;6.33;;;3.70;70.70;;;;;;4953770;28;20461;-72
2022/03/11 07:49:56;;;;;;;8.60;6.03;;;3.80;69.70;;;;;;4953792;28;20465;-71
2022/03/11 07:52:25;;;;;;;13.90;7.20;;;3.90;69.60;;;;;;4953532;28;21052;-72
2022/03/11 07:54:53;;;;;;;8.57;6.23;;;4.00;69.30;;;;;;4954990;28;20466;-71
2022/03/11 07:57:20;;;;;;;10.37;6.30;;;4.10;68.90;;;;;;4960036;28;20496;-72
2022/03/11 07:59:46;;;;;;;10.40;6.00;;;4.30;69.30;;;;;;4960176;28;20461;-72
2022/03/11 08:02:14;;;;;;;12.70;7.30;;;4.40;68.40;;;;;;4959869;28;20497;-72
2022/03/11 08:04:42;;;;;;;14.00;7.33;;;4.50;68.40;;;;;;4960345;28;20463;-72
2022/03/11 08:07:11;;;;;;;10.97;7.37;;;4.60;68.80;;;;;;4959557;28;20957;-73
2022/03/11 08:09:39;;;;;;;10.60;7.13;;;4.70;68.50;;;;;;4959889;28;20982;-74
2022/03/11 08:12:08;;;;;;;11.60;6.70;;;4.80;67.60;;;;;;4959912;28;20512;-73
2022/03/11 08:14:35;;;;;;;12.57;7.55;;;4.90;68.30;;;;;;4960261;28;20523;-73
2022/03/11 08:17:02;;;;;;;13.83;7.90;;;5.20;68.00;;;;;;4959880;28;20309;-73
2022/03/11 08:19:29;;;;;;;9.50;6.80;;;5.30;67.90;;;;;;4960282;28;20968;-73
2022/03/11 08:21:58;;;;;;;8.00;5.67;;;5.40;67.80;;;;;;4959788;28;20593;-72
2022/03/11 08:24:25;;;;;;;11.37;6.93;;;5.60;67.70;;;;;;4959691;28;20457;-72
2022/03/11 08:26:51;;;;;;;12.20;7.17;;;5.80;67.40;;;;;;4958688;28;20453;-72
2022/03/11 08:29:20;;;;;;;25.80;7.17;;;5.90;67.00;;;;;;4958876;28;20453;-72
2022/03/11 08:31:48;;;;;;;10.83;7.93;;;6.10;67.20;;;;;;4958729;28;20943;-73
2022/03/11 08:34:15;;;;;;;11.80;7.53;;;6.20;67.50;;;;;;4958667;28;20464;-73
2022/03/11 08:36:42;;;;;;;11.53;8.10;;;6.30;65.40;;;;;;4958746;28;20540;-72
2022/03/11 08:39:09;;;;;;;15.60;7.83;;;6.40;65.80;;;;;;4958974;28;20464;-73
2022/03/11 08:41:35;;;;;;;10.90;7.00;;;6.60;65.80;;;;;;4958440;28;20479;-72
2022/03/11 08:44:05;;;;;;;11.00;7.43;;;6.70;66.70;;;;;;4958836;28;20551;-72
2022/03/11 08:46:33;;;;;;;11.43;7.30;;;7.00;67.30;;;;;;4955451;28;20578;-72
2022/03/11 08:49:00;;;;;;;9.30;7.20;;;7.20;66.00;;;;;;4939277;29;20470;-73
2022/03/11 08:51:27;;;;;;;9.70;6.40;;;7.30;64.90;;;;;;4939501;29;20485;-72
2022/03/11 08:53:55;;;;;;;10.37;6.87;;;7.40;64.80;;;;;;4939870;29;20458;-74
2022/03/11 08:56:22;;;;;;;10.20;7.10;;;7.70;65.70;;;;;;4939472;29;20452;-74
2022/03/11 08:58:49;;;;;;;11.10;7.40;;;7.80;64.40;;;;;;4939464;29;20826;-73
2022/03/11 09:01:17;;;;;;;11.20;7.07;;;8.00;64.60;;;;;;4955629;28;20486;-75
2022/03/11 09:03:48;;;;;;;10.20;7.17;;;8.30;64.00;;;;;;4978220;28;20531;-73
2022/03/11 09:06:15;;;;;;;14.53;7.70;;;8.60;63.00;;;;;;4976867;28;20474;-73
2022/03/11 09:08:42;;;;;;;14.17;7.77;;;8.80;62.80;;;;;;4974438;28;20467;-74
2022/03/11 09:11:09;;;;;;;9.90;7.23;;;8.90;63.50;;;;;;4974870;28;20476;-74
2022/03/11 09:13:36;;;;;;;12.27;7.77;;;9.00;64.00;;;;;;4974886;28;20560;-74
2022/03/11 09:16:04;;;;;;;13.17;7.90;;;9.20;63.10;;;;;;4974971;28;20464;-74
2022/03/11 09:18:31;;;;;;;9.73;7.00;;;9.50;61.80;;;;;;4974490;28;20476;-73
2022/03/11 09:21:00;;;;;;;12.47;7.77;;;9.60;61.90;;;;;;4974557;28;21043;-73
2022/03/11 09:23:27;;;;;;;11.63;7.20;;;9.70;62.80;;;;;;4974526;28;20484;-74
2022/03/11 09:25:54;;;;;;;12.63;7.60;;;10.00;60.30;;;;;;4974583;28;20507;-73
2022/03/11 09:28:21;;;;;;;11.07;7.40;;;10.30;59.80;;;;;;4974399;28;20491;-74
2022/03/11 09:30:49;;;;;;;12.10;8.43;;;10.50;60.10;;;;;;4974882;28;20482;-73
2022/03/11 09:33:16;;;;;;;12.60;8.30;;;10.70;60.10;;;;;;4974989;28;20460;-73
2022/03/11 09:35:42;;;;;;;10.63;7.50;;;11.00;58.90;;;;;;4974311;28;20453;-73
2022/03/11 09:38:11;;;;;;;17.20;8.33;;;11.20;59.10;;;;;;4974018;28;20459;-73
2022/03/11 09:40:41;;;;;;;11.60;7.77;;;11.30;59.20;;;;;;4974125;28;21047;-74
2022/03/11 09:43:08;;;;;;;11.67;8.23;;;11.30;58.80;;;;;;4974148;28;20488;-74
2022/03/11 09:45:35;;;;;;;12.83;8.07;;;11.40;59.20;;;;;;4974437;28;20445;-73
2022/03/11 09:48:02;;;;;;;13.80;7.80;;;11.60;58.80;;;;;;4974100;28;20549;-74
2022/03/11 09:50:29;;;;;;;12.50;7.67;;;12.00;58.40;;;;;;4974003;28;21282;-74
2022/03/11 09:52:57;;;;;;;13.20;9.07;;;12.10;57.90;;;;;;4973994;28;20484;-75
2022/03/11 09:55:25;;;;;;;10.70;7.27;;;12.40;58.60;;;;;;4974671;28;20484;-74
2022/03/11 09:57:53;;;;;;;13.00;8.20;;;12.70;57.30;;;;;;4974630;28;20929;-74
2022/03/11 10:00:20;;;;;;;10.90;7.97;;;12.70;57.60;;;;;;4975073;28;20452;-75
2022/03/11 10:02:47;;;;;;;12.30;7.97;;;12.90;58.10;;;;;;4975081;28;20560;-75
2022/03/11 10:05:15;;;;;;;12.70;7.70;;;13.00;58.30;;;;;;4974915;28;20850;-75
2022/03/11 10:07:42;;;;;;;11.23;7.23;;;13.30;58.00;;;;;;4974412;28;20463;-75
2022/03/11 10:10:14;;;;;;;13.60;8.73;;;13.60;57.10;;;;;;4974536;28;20461;-75
2022/03/11 10:12:44;;;;;;;12.20;7.90;;;13.70;57.50;;;;;;4974899;28;20448;-75
2022/03/11 10:15:12;;;;;;;12.67;8.20;;;13.80;57.50;;;;;;4974677;28;20457;-75
2022/03/11 10:17:40;;;;;;;13.73;8.00;;;14.30;57.50;;;;;;4974146;28;20555;-75
2022/03/11 10:20:09;;;;;;;11.30;7.67;;;14.60;57.70;;;;;;4974778;28;20449;-75
2022/03/11 10:22:37;;;;;;;10.97;8.23;;;14.70;57.20;;;;;;4974405;28;20506;-75
2022/03/11 10:25:13;;;;;;;11.63;8.10;;;14.90;56.40;;;;;;4974535;28;20886;-75
2022/03/11 10:28:02;;;;;;;8.87;7.50;;;14.90;57.30;;;;;;4974243;28;20456;-75
2022/03/11 10:30:31;;;;;;;12.33;7.90;;;14.80;55.80;;;;;;4974288;28;20456;-76
2022/03/11 10:32:59;;;;;;;16.53;8.57;;;15.00;56.00;;;;;;4974154;28;20964;-76
2022/03/11 10:35:34;;;;;;;12.30;8.33;;;14.90;55.40;;;;;;4974513;28;20543;-75
2022/03/11 10:38:03;;;;;;;14.80;9.10;;;15.00;55.90;;;;;;4973816;28;20538;-76
2022/03/11 10:40:31;;;;;;;10.07;7.43;;;15.20;56.50;;;;;;4974172;28;20488;-75
2022/03/11 10:43:17;;;;;;;14.27;8.90;;;15.40;56.50;;;;;;4970904;28;20500;-75
2022/03/11 10:45:49;;;;;;;12.57;8.70;;;15.70;56.30;;;;;;4935800;29;20466;-75
2022/03/11 10:48:17;;;;;;;13.40;8.27;;;15.60;55.60;;;;;;4963473;28;20520;-75
2022/03/11 10:50:44;;;;;;;14.10;8.27;;;16.00;55.20;;;;;;4973732;28;20484;-75
2022/03/11 10:53:13;;;;;;;12.70;7.60;;;16.10;54.90;;;;;;4973813;28;20511;-75
2022/03/11 10:55:42;;;;;;;14.30;9.23;;;16.00;55.70;;;;;;4973623;28;20452;-75
2022/03/11 10:58:16;;;;;;;12.80;8.10;;;16.10;55.10;;;;;;4973421;28;21154;-75
2022/03/11 11:00:45;;;;;;;12.83;8.70;;;15.90;54.90;;;;;;4973500;28;20536;-75
2022/03/11 11:03:13;;;;;;;13.60;8.20;;;15.70;55.00;;;;;;4973729;28;20518;-75
2022/03/11 11:05:41;;;;;;;13.70;8.70;;;16.10;55.20;;;;;;4967823;28;20907;-75
2022/03/11 11:08:09;;;;;;;11.00;8.23;;;16.50;53.90;;;;;;4954078;28;20480;-75
2022/03/11 11:10:37;;;;;;;10.10;7.70;;;16.50;55.30;;;;;;4954067;28;21004;-75
2022/03/11 11:13:06;;;;;;;14.27;8.57;;;17.20;54.90;;;;;;4954624;28;20450;-75
2022/03/11 11:15:35;;;;;;;12.00;8.90;;;16.90;54.50;;;;;;4977866;23;20494;-75
2022/03/11 11:18:09;;;;;;;13.47;8.90;;;17.10;55.90;;;;;;4954456;28;20553;-74
2022/03/11 11:20:45;;;;;;;11.33;8.60;;;17.70;54.10;;;;;;4954292;28;20434;-74
2022/03/11 11:23:12;;;;;;;13.90;8.20;;;18.10;53.40;;;;;;4954202;28;20973;-74
2022/03/11 11:25:41;;;;;;;13.13;8.67;;;18.50;53.60;;;;;;4936084;28;20478;-74
2022/03/11 11:28:10;;;;;;;11.07;8.70;;;18.30;53.30;;;;;;4935124;29;20455;-74
2022/03/11 11:30:37;;;;;;;11.57;8.10;;;18.30;52.10;;;;;;4934319;29;20454;-74
2022/03/11 11:33:06;;;;;;;12.13;8.23;;;18.50;52.70;;;;;;4935379;29;20454;-74
2022/03/11 11:35:35;;;;;;;12.53;8.30;;;18.30;52.70;;;;;;4934705;29;20506;-75
2022/03/11 11:38:03;;;;;;;12.73;9.37;;;18.20;52.50;;;;;;4934978;29;20501;-75
2022/03/11 11:40:32;;;;;;;11.10;8.90;;;17.90;53.50;;;;;;4934926;29;20461;-76
2022/03/11 11:43:27;;;;;;;11.03;8.13;;;17.70;53.70;;;;;;4934931;29;21002;-75
2022/03/11 11:45:56;;;;;;;10.80;8.40;;;17.80;52.50;;;;;;4915908;29;20527;-77
2022/03/11 11:49:00;;;;;;;11.80;9.00;;;18.40;53.30;;;;;;4915930;29;21061;-76
2022/03/11 11:52:04;;;;;;;13.57;9.10;;;19.10;52.80;;;;;;4915549;29;20507;-76
2022/03/11 11:54:39;;;;;;;14.27;8.67;;;18.90;52.60;;;;;;4915189;29;20524;-76
2022/03/11 11:57:08;;;;;;;14.20;9.17;;;18.90;53.80;;;;;;4915702;29;20540;-76
2022/03/11 11:59:37;;;;;;;14.87;9.57;;;19.10;52.10;;;;;;4915747;29;21024;-75
2022/03/11 12:02:20;;;;;;;12.97;9.07;;;19.10;51.80;;;;;;4915051;29;20952;-76
2022/03/11 12:04:47;;;;;;;14.10;9.17;;;18.80;52.30;;;;;;4914277;29;20851;-76
2022/03/11 12:07:17;;;;;;;15.80;9.17;;;18.90;52.40;;;;;;4914387;29;20554;-77
2022/03/11 12:09:47;;;;;;;13.27;9.87;;;18.40;52.00;;;;;;4914539;29;20463;-75
2022/03/11 12:12:56;;;;;;;13.63;9.30;;;18.10;53.40;;;;;;4914464;29;20857;-75
2022/03/11 12:15:24;;;;;;;13.83;8.63;;;18.40;53.90;;;;;;4914210;29;20495;-75
2022/03/11 12:17:56;;;;;;;12.13;8.63;;;19.20;52.60;;;;;;4914076;29;20459;-75
2022/03/11 12:20:35;;;;;;;16.47;9.63;;;19.80;52.10;;;;;;4914530;29;20500;-75
2022/03/11 12:23:06;;;;;;;14.17;8.27;;;20.10;51.20;;;;;;4914357;29;20506;-75
2022/03/11 12:25:35;;;;;;;13.57;9.00;;;20.30;52.50;;;;;;4914168;29;20479;-75
2022/03/11 12:28:13;;;;;;;12.97;8.63;;;20.10;51.30;;;;;;4914207;29;20467;-75
2022/03/11 12:30:42;;;;;;;12.37;8.80;;;19.90;52.20;;;;;;4914761;29;20454;-75
2022/03/11 12:33:12;;;;;;;12.03;9.37;;;19.70;52.10;;;;;;4914730;29;20567;-75
2022/03/11 12:35:39;;;;;;;13.57;9.40;;;19.80;51.80;;;;;;4914554;29;20471;-75
2022/03/11 12:38:13;;;;;;;13.43;8.90;;;19.80;52.20;;;;;;4913976;29;21011;-75
2022/03/11 12:40:40;;;;;;;13.67;8.53;;;20.00;52.00;;;;;;4915246;29;20535;-77
2022/03/11 12:43:11;;;;;;;15.70;8.90;;;20.60;52.20;;;;;;4918897;29;20498;-75
2022/03/11 12:45:40;;;;;;;16.27;9.20;;;20.70;51.70;;;;;;4918663;29;20485;-77
2022/03/11 12:48:08;;;;;;;12.53;8.73;;;20.60;51.90;;;;;;4918689;29;20912;-76
2022/03/11 12:50:36;;;;;;;13.80;9.17;;;20.50;52.00;;;;;;4918743;29;20459;-75
2022/03/11 12:53:04;;;;;;;12.07;8.90;;;20.10;52.10;;;;;;4919144;29;20455;-75
2022/03/11 12:55:33;;;;;;;16.87;10.23;;;20.10;52.40;;;;;;4918672;29;20486;-75
2022/03/11 12:58:02;;;;;;;11.50;8.70;;;20.30;51.90;;;;;;4918681;29;20491;-75
2022/03/11 13:00:30;;;;;;;14.60;9.60;;;20.40;52.90;;;;;;4918913;29;20459;-75
2022/03/11 13:02:58;;;;;;;13.97;9.67;;;20.40;52.00;;;;;;4918449;29;20463;-76
2022/03/11 13:05:27;;;;;;;12.43;8.67;;;20.40;52.20;;;;;;4918557;29;21005;-78
2022/03/11 13:07:59;;;;;;;13.10;9.00;;;20.60;51.70;;;;;;4918655;29;20542;-76
2022/03/11 13:10:27;;;;;;;12.63;9.07;;;21.10;51.20;;;;;;4918917;29;20503;-75
2022/03/11 13:12:57;;;;;;;13.43;9.80;;;21.40;50.70;;;;;;4918775;29;20455;-75
2022/03/11 13:15:27;;;;;;;14.43;9.90;;;21.60;50.70;;;;;;4918323;29;20979;-76
2022/03/11 13:18:03;;;;;;;15.07;9.03;;;21.40;50.40;;;;;;4918404;29;20981;-75
2022/03/11 13:20:33;;;;;;;13.63;9.20;;;21.10;50.70;;;;;;4918306;29;20934;-76
2022/03/11 13:23:07;;;;;;;14.73;10.60;;;20.80;51.10;;;;;;4918293;29;20467;-76
2022/03/11 13:25:35;;;;;;;14.07;9.67;;;20.70;51.40;;;;;;4918478;29;20512;-68
2022/03/11 13:28:03;;;;;;;12.20;9.47;;;20.80;52.60;;;;;;4917742;29;20467;-71
2022/03/11 13:30:34;;;;;;;17.10;10.33;;;20.80;50.40;;;;;;4918406;29;20459;-70
2022/03/11 13:33:12;;;;;;;14.10;10.40;;;20.50;50.90;;;;;;4918057;29;20482;-70
2022/03/11 13:35:39;;;;;;;13.40;9.47;;;20.50;50.90;;;;;;4918010;29;20482;-70
2022/03/11 13:38:06;;;;;;;12.97;9.60;;;20.40;51.00;;;;;;4917713;29;20550;-71
2022/03/11 13:40:33;;;;;;;11.83;9.43;;;20.30;51.10;;;;;;4917726;29;20452;-71
2022/03/11 13:43:02;;;;;;;15.03;9.93;;;20.30;52.10;;;;;;4917120;29;20462;-69
2022/03/11 13:45:33;;;;;;;14.03;9.93;;;20.30;51.80;;;;;;4916937;29;20514;-71
2022/03/11 13:48:08;;;;;;;13.20;9.43;;;20.30;50.50;;;;;;4916601;29;20459;-71
2022/03/11 13:50:36;;;;;;;17.00;9.70;;;20.30;51.50;;;;;;4916876;29;20447;-76
2022/03/11 13:53:05;;;;;;;14.17;9.53;;;20.20;51.20;;;;;;4915957;29;20899;-76
2022/03/11 13:55:35;;;;;;;16.13;8.73;;;20.40;51.40;;;;;;4917222;29;20483;-76
2022/03/11 13:58:15;;;;;;;15.80;9.90;;;20.40;51.10;;;;;;4916721;29;20455;-76
2022/03/11 14:00:44;;;;;;;16.07;10.40;;;20.50;50.80;;;;;;4917055;29;20487;-77
2022/03/11 14:03:16;;;;;;;12.23;9.30;;;20.40;50.80;;;;;;4916963;29;20482;-76
2022/03/11 14:05:44;;;;;;;16.87;9.80;;;20.40;50.90;;;;;;4916433;29;20562;-76
2022/03/11 14:08:13;;;;;;;16.97;9.80;;;20.50;50.70;;;;;;4916654;29;20463;-76
2022/03/11 14:10:45;;;;;;;14.47;10.37;;;20.60;51.40;;;;;;4915645;29;20463;-75
2022/03/11 14:13:15;;;;;;;14.43;10.07;;;20.70;51.30;;;;;;4916486;29;20832;-75
2022/03/11 14:15:47;;;;;;;15.73;11.10;;;20.90;50.60;;;;;;4916263;29;20491;-76
2022/03/11 14:18:15;;;;;;;14.70;10.23;;;20.90;50.80;;;;;;4916348;29;20545;-76
2022/03/11 14:20:43;;;;;;;14.07;9.70;;;20.90;50.30;;;;;;4916621;29;20459;-76
2022/03/11 14:23:10;;;;;;;20.27;11.60;;;20.90;50.80;;;;;;4916540;29;20490;-76
2022/03/11 14:25:37;;;;;;;16.20;10.30;;;21.00;50.70;;;;;;4916160;29;20554;-76
2022/03/11 14:28:06;;;;;;;12.43;9.77;;;20.90;50.80;;;;;;4916114;29;20576;-75
2022/03/11 14:30:33;;;;;;;13.60;9.93;;;20.70;50.20;;;;;;4916653;29;20502;-75
2022/03/11 14:33:01;;;;;;;15.60;10.80;;;20.70;50.60;;;;;;4916253;29;20538;-76
2022/03/11 14:35:28;;;;;;;14.37;10.00;;;20.60;50.20;;;;;;4916519;29;20536;-76
2022/03/11 14:37:55;;;;;;;12.93;10.27;;;20.60;51.00;;;;;;4915871;29;20983;-76
2022/03/11 14:40:22;;;;;;;15.20;9.82;;;20.80;50.70;;;;;;4916139;29;20458;-77
2022/03/11 14:42:49;;;;;;;14.77;10.83;;;20.80;50.80;;;;;;4916149;29;20215;-76
2022/03/11 14:45:16;;;;;;;14.30;9.63;;;20.80;50.40;;;;;;4916119;29;20594;-77
2022/03/11 14:47:44;;;;;;;14.93;10.60;;;20.70;49.70;;;;;;4915789;29;20457;-75
2022/03/11 14:50:14;;;;;;;14.47;10.20;;;20.60;50.00;;;;;;4915953;29;20464;-76
2022/03/11 14:52:42;;;;;;;13.60;10.67;;;20.60;50.10;;;;;;4915824;29;20479;-75
2022/03/11 14:55:11;;;;;;;17.77;9.57;;;20.60;50.30;;;;;;4915449;29;20471;-75
2022/03/11 14:57:38;;;;;;;13.40;9.97;;;20.70;50.00;;;;;;4915809;29;20486;-76
2022/03/11 15:00:08;;;;;;;13.13;10.13;;;20.80;50.20;;;;;;4915911;29;20455;-76
2022/03/11 15:02:36;;;;;;;13.70;10.07;;;20.80;49.60;;;;;;4915414;29;20553;-76
2022/03/11 15:05:02;;;;;;;17.37;10.63;;;20.80;49.90;;;;;;4914814;29;20589;-75
2022/03/11 15:07:31;;;;;;;15.23;10.30;;;20.70;49.70;;;;;;4915014;29;20459;-76
2022/03/11 15:09:58;;;;;;;17.53;11.63;;;20.60;49.90;;;;;;4915488;29;20463;-76
2022/03/11 15:12:25;;;;;;;15.93;10.80;;;20.50;49.60;;;;;;4915847;29;20447;-76
2022/03/11 15:14:53;;;;;;;13.93;9.77;;;20.40;49.20;;;;;;4915304;29;20493;-75
2022/03/11 15:17:22;;;;;;;16.37;11.03;;;20.30;49.50;;;;;;4914517;29;20455;-71
2022/03/11 15:19:49;;;;;;;13.70;10.30;;;20.40;49.80;;;;;;4916298;29;20555;-71
2022/03/11 15:22:16;;;;;;;14.83;10.07;;;20.50;50.30;;;;;;4915973;29;20465;-70
2022/03/11 15:24:46;;;;;;;16.30;10.27;;;20.60;49.90;;;;;;4919173;29;20507;-70
2022/03/11 15:27:13;;;;;;;13.00;10.50;;;20.70;50.40;;;;;;4942983;28;20450;-71
2022/03/11 15:29:40;;;;;;;14.67;10.60;;;20.70;50.20;;;;;;4937030;28;20454;-69
2022/03/11 15:32:07;;;;;;;17.27;11.07;;;20.80;50.10;;;;;;4935082;29;20460;-70
2022/03/11 15:34:36;;;;;;;15.43;11.70;;;21.00;49.40;;;;;;4935721;29;20470;-69
2022/03/11 15:37:06;;;;;;;14.03;10.40;;;21.10;49.30;;;;;;4937261;29;20805;-72
2022/03/11 15:39:33;;;;;;;14.17;10.03;;;21.10;50.20;;;;;;4937191;29;20454;-70
2022/03/11 15:42:01;;;;;;;12.90;8.57;;;21.30;50.80;;;;;;4937005;29;20463;-71
2022/03/11 15:44:28;;;;;;;15.23;9.73;;;21.40;50.50;;;;;;4936255;29;20537;-71
2022/03/11 15:46:55;;;;;;;14.70;10.07;;;21.50;49.80;;;;;;4936327;29;20505;-70
2022/03/11 15:49:22;;;;;;;12.17;9.80;;;21.60;49.80;;;;;;4917070;29;20507;-75
2022/03/11 15:51:49;;;;;;;16.93;10.57;;;21.50;49.10;;;;;;4916061;29;20546;-76
2022/03/11 15:54:15;;;;;;;16.03;10.30;;;21.40;48.60;;;;;;4915712;29;21025;-76
2022/03/11 15:56:45;;;;;;;16.60;11.23;;;21.30;49.30;;;;;;4915969;29;20538;-76
2022/03/11 15:59:13;;;;;;;14.60;10.83;;;21.10;48.80;;;;;;4915904;29;20535;-77
2022/03/11 16:01:40;;;;;;;15.03;9.80;;;21.00;49.00;;;;;;4915805;29;20944;-76
2022/03/11 16:04:07;;;;;;;14.07;9.43;;;20.80;48.60;;;;;;4915510;29;20509;-77
2022/03/11 16:06:34;;;;;;;15.40;10.80;;;20.60;49.00;;;;;;4915486;29;20950;-76
2022/03/11 16:09:02;;;;;;;23.97;13.67;;;20.30;49.10;;;;;;4916078;29;20447;-77
2022/03/11 16:11:29;;;;;;;61.20;41.73;;;20.00;49.20;;;;;;4915681;29;21046;-76
2022/03/11 16:13:56;;;;;;;32.47;25.13;;;19.60;48.60;;;;;;4915653;29;20491;-76
2022/03/11 16:16:25;;;;;;;13.33;10.37;;;19.20;49.20;;;;;;4916763;29;20542;-77
2022/03/11 16:18:52;;;;;;;98.40;45.93;;;18.80;48.80;;;;;;4919471;29;20944;-76
2022/03/11 16:21:21;;;;;;;16.60;12.13;;;18.50;48.70;;;;;;4919657;29;20463;-76
2022/03/11 16:23:48;;;;;;;14.30;11.00;;;18.20;49.20;;;;;;4940359;29;20544;-76
2022/03/11 16:26:15;;;;;;;17.58;11.40;;;17.90;48.60;;;;;;4946875;29;20448;-76
2022/03/11 16:28:42;;;;;;;15.30;10.90;;;17.50;49.30;;;;;;4944778;28;20207;-75
2022/03/11 16:31:09;;;;;;;30.30;20.10;;;17.30;49.10;;;;;;4938199;29;20489;-75
2022/03/11 16:33:38;;;;;;;28.33;17.93;;;17.00;48.90;;;;;;4938194;29;20458;-76
2022/03/11 16:36:05;;;;;;;24.10;13.83;;;16.80;49.20;;;;;;4938197;29;20514;-76
2022/03/11 16:38:33;;;;;;;43.20;27.30;;;16.70;49.10;;;;;;4938074;29;20454;-75
2022/03/11 16:41:00;;;;;;;19.43;13.10;;;16.60;50.10;;;;;;4938328;29;20536;-75
2022/03/11 16:43:27;;;;;;;18.30;11.20;;;16.30;48.90;;;;;;4942828;29;20450;-75
2022/03/11 16:45:53;;;;;;;13.57;10.30;;;16.10;49.30;;;;;;4955586;29;21017;-75
2022/03/11 16:48:20;;;;;;;21.90;16.63;;;16.00;49.30;;;;;;4957237;28;20476;-77
2022/03/11 16:50:49;;;;;;;21.17;17.50;;;15.90;49.10;;;;;;4957250;28;20468;-75
2022/03/11 16:53:15;;;;;;;14.87;11.53;;;15.70;49.00;;;;;;4957526;28;20829;-78
2022/03/11 16:55:42;;;;;;;21.43;15.77;;;15.60;49.40;;;;;;4957561;28;20982;-78
2022/03/11 16:58:09;;;;;;;14.90;10.50;;;15.40;48.80;;;;;;4956695;28;20838;-78
2022/03/11 17:00:36;;;;;;;18.17;12.63;;;15.30;49.30;;;;;;4957022;28;20942;-77
2022/03/11 17:03:04;;;;;;;20.00;11.33;;;15.10;49.30;;;;;;4957069;28;20532;-78
2022/03/11 17:05:31;;;;;;;19.00;10.13;;;15.00;49.20;;;;;;4954149;28;20493;-78
2022/03/11 17:07:59;;;;;;;14.70;10.20;;;14.80;49.30;;;;;;4956830;28;20492;-77
2022/03/11 17:10:26;;;;;;;13.33;9.97;;;14.70;49.60;;;;;;4957008;28;20463;-78
2022/03/11 17:12:55;;;;;;;14.60;10.80;;;14.60;50.10;;;;;;4956564;28;20544;-78
2022/03/11 17:15:22;;;;;;;25.30;16.90;;;14.60;50.50;;;;;;4958770;28;20568;-69
2022/03/11 17:17:49;;;;;;;16.60;11.33;;;14.40;49.50;;;;;;4957654;28;20489;-78
2022/03/11 17:20:16;;;;;;;13.73;9.50;;;14.30;50.30;;;;;;4959920;28;20539;-78
2022/03/11 17:22:44;;;;;;;15.40;10.73;;;14.30;50.00;;;;;;4960253;28;20444;-79
2022/03/11 17:25:12;;;;;;;16.73;11.20;;;14.20;50.10;;;;;;4960313;28;20493;-78
2022/03/11 17:27:39;;;;;;;38.83;20.10;;;14.20;50.60;;;;;;4958543;28;20508;-78
2022/03/11 17:30:07;;;;;;;36.63;19.45;;;14.00;50.20;;;;;;4959578;28;20544;-78
2022/03/11 17:32:34;;;;;;;36.77;22.53;;;13.90;50.60;;;;;;4959523;28;20580;-78
2022/03/11 17:35:01;;;;;;;16.10;10.90;;;13.80;49.90;;;;;;4959520;28;20474;-79
2022/03/11 17:37:31;;;;;;;21.23;14.20;;;13.60;50.50;;;;;;4959649;28;20459;-78
2022/03/11 17:39:58;;;;;;;16.83;13.30;;;13.60;50.20;;;;;;4959463;28;20297;-78
2022/03/11 17:42:26;;;;;;;34.63;20.77;;;13.50;50.60;;;;;;4959707;28;20465;-78
2022/03/11 17:44:53;;;;;;;32.60;18.77;;;13.50;50.60;;;;;;4959413;28;20493;-78
2022/03/11 17:47:20;;;;;;;363.47;178.17;;;13.40;50.20;;;;;;4959096;28;20464;-79